Time;durP1;ratioP1;P1;durP2;ratioP2;P2;SDS_P1;SDS_P2;PMS_P1;PMS_P2;Temp;Humidity;BMP_temperature;BMP_pressure;BME280_temperature;BME280_humidity;BME280_pressure;Samples;Min_cycle;Max_cycle;Signal;HPM_P1;HPM_P2
2023/11/17 00:02:45;;;;;;;55.00;27.50;;;;;;;11.16;100.00;98189.75;68385;1280;1016148;-72
2023/11/17 00:05:47;;;;;;;57.00;27.80;;;;;;;11.13;100.00;98190.50;68401;1280;1015590;-72
2023/11/17 00:08:50;;;;;;;63.00;29.20;;;;;;;11.04;100.00;98187.68;68412;1280;1016202;-72
2023/11/17 00:11:54;;;;;;;51.40;24.60;;;;;;;10.89;100.00;98187.19;68398;1280;1015383;-72
2023/11/17 00:14:56;;;;;;;58.80;27.50;;;;;;;11.03;100.00;98190.89;68390;1280;1015659;-71
2023/11/17 00:17:59;;;;;;;50.60;25.50;;;;;;;11.12;100.00;98189.05;68396;1280;1015824;-71
2023/11/17 00:21:02;;;;;;;58.80;28.60;;;;;;;11.11;100.00;98191.35;68399;1280;1016222;-72
2023/11/17 00:24:06;;;;;;;60.50;29.70;;;;;;;11.22;100.00;98187.54;68405;1280;1014702;-72
2023/11/17 00:27:09;;;;;;;56.00;26.50;;;;;;;11.33;100.00;98188.89;68411;1280;1015429;-72
2023/11/17 00:30:14;;;;;;;51.70;26.30;;;;;;;11.34;100.00;98185.62;68408;1280;1015316;-72
2023/11/17 00:33:16;;;;;;;47.10;24.70;;;;;;;11.54;100.00;98178.77;68404;1280;1015826;-72
2023/11/17 00:36:19;;;;;;;51.20;26.50;;;;;;;11.41;100.00;98180.73;68406;1280;1015879;-72
2023/11/17 00:39:25;;;;;;;52.40;26.30;;;;;;;11.42;100.00;98175.92;68404;1280;1016037;-72
2023/11/17 00:42:27;;;;;;;52.30;25.60;;;;;;;11.48;100.00;98171.98;68407;1280;1015654;-72
2023/11/17 00:45:30;;;;;;;51.50;25.80;;;;;;;11.60;100.00;98169.34;68398;1280;1015780;-72
2023/11/17 00:48:32;;;;;;;59.60;27.60;;;;;;;11.70;100.00;98174.20;68405;1280;1015383;-70
2023/11/17 00:51:35;;;;;;;66.50;27.80;;;;;;;11.54;100.00;98174.52;68412;1280;1014688;-70
2023/11/17 00:54:42;;;;;;;74.30;32.70;;;;;;;11.55;100.00;98170.63;68408;1280;1015900;-69
2023/11/17 00:57:45;;;;;;;56.60;26.10;;;;;;;11.78;100.00;98168.21;68424;1280;1015485;-70
2023/11/17 01:00:47;;;;;;;49.80;24.00;;;;;;;11.89;100.00;98166.48;68395;1280;1015303;-70
2023/11/17 01:03:50;;;;;;;48.00;24.10;;;;;;;11.94;100.00;98164.20;68395;1279;1015792;-70
2023/11/17 01:06:54;;;;;;;47.60;24.40;;;;;;;11.98;100.00;98163.85;68392;1279;1015866;-70
2023/11/17 01:09:57;;;;;;;53.60;25.50;;;;;;;12.07;100.00;98161.38;68393;1279;1015477;-70
2023/11/17 01:13:00;;;;;;;62.00;30.00;;;;;;;12.00;100.00;98161.61;68396;1280;1015742;-70
2023/11/17 01:16:03;;;;;;;50.10;25.40;;;;;;;11.61;100.00;98161.79;68401;1279;1015641;-70
2023/11/17 01:19:05;;;;;;;46.00;23.80;;;;;;;11.55;100.00;98158.11;68398;1279;1016124;-70
2023/11/17 01:22:08;;;;;;;44.50;23.70;;;;;;;11.73;100.00;98152.96;68397;1280;1015819;-70
2023/11/17 01:25:10;;;;;;;50.00;23.90;;;;;;;11.87;100.00;98155.23;68418;1280;1015206;-70
2023/11/17 01:28:13;;;;;;;47.40;23.80;;;;;;;11.81;100.00;98155.32;68414;1279;1015778;-70
2023/11/17 01:31:15;;;;;;;60.40;25.90;;;;;;;11.85;100.00;98153.45;68426;1279;1015364;-70
2023/11/17 01:34:18;;;;;;;65.50;26.90;;;;;;;11.81;100.00;98145.20;68409;1280;1015811;-70
2023/11/17 01:37:20;;;;;;;46.90;23.20;;;;;;;11.76;100.00;98143.27;68397;1280;1015983;-70
2023/11/17 01:40:23;;;;;;;43.30;22.10;;;;;;;11.67;100.00;98137.95;68400;1279;1015916;-69
2023/11/17 01:43:25;;;;;;;47.30;23.60;;;;;;;11.71;100.00;98138.73;68428;1280;1015208;-70
2023/11/17 01:46:28;;;;;;;55.40;25.90;;;;;;;11.69;100.00;98137.69;68416;1280;1016521;-70
2023/11/17 01:49:31;;;;;;;44.20;22.30;;;;;;;11.79;100.00;98135.38;68425;1280;1015665;-70
2023/11/17 01:52:34;;;;;;;40.80;20.90;;;;;;;11.76;100.00;98131.15;68403;1280;1015231;-70
2023/11/17 01:55:37;;;;;;;42.80;22.00;;;;;;;11.65;100.00;98127.98;68390;1280;1015928;-70
2023/11/17 01:58:39;;;;;;;43.20;21.40;;;;;;;11.69;100.00;98124.35;68410;1280;1015984;-70
2023/11/17 02:01:42;;;;;;;44.00;23.30;;;;;;;11.84;100.00;98111.82;68403;1280;1015511;-69
2023/11/17 02:04:44;;;;;;;43.70;21.60;;;;;;;11.86;100.00;98113.64;68421;1280;1015849;-70
2023/11/17 02:07:47;;;;;;;41.00;20.50;;;;;;;11.84;100.00;98115.49;68412;1280;1016110;-70
2023/11/17 02:10:50;;;;;;;38.70;19.70;;;;;;;11.84;100.00;98115.21;68402;1280;1015340;-70
2023/11/17 02:13:52;;;;;;;39.40;20.70;;;;;;;11.76;100.00;98108.63;68412;1280;1015350;-70
2023/11/17 02:16:56;;;;;;;39.70;21.00;;;;;;;11.71;100.00;98105.27;68403;1279;1015908;-70
2023/11/17 02:20:11;;;;;;;42.70;21.50;;;;;;;11.75;100.00;98108.98;68405;1280;1016222;-70
2023/11/17 02:23:15;;;;;;;39.10;19.50;;;;;;;11.75;100.00;98097.29;68429;1280;1015800;-72
2023/11/17 02:26:17;;;;;;;41.20;20.60;;;;;;;11.66;100.00;98094.83;68420;1280;1016128;-72
2023/11/17 02:29:23;;;;;;;38.20;18.90;;;;;;;11.70;100.00;98094.69;68416;1280;1016012;-73
2023/11/17 02:32:26;;;;;;;38.50;19.20;;;;;;;11.58;100.00;98094.93;68431;1279;1016409;-72
2023/11/17 02:35:29;;;;;;;37.10;18.40;;;;;;;11.59;100.00;98094.28;68410;1280;1015479;-72
2023/11/17 02:38:32;;;;;;;35.50;18.00;;;;;;;11.68;100.00;98090.09;68408;1279;1016113;-72
2023/11/17 02:41:37;;;;;;;;;;;;;;;11.68;100.00;98086.98;68423;1280;1015499;-72
2023/11/17 02:44:40;;;;;;;37.60;17.70;;;;;;;11.60;100.00;98088.97;68421;1280;1015364;-72
2023/11/17 02:47:46;;;;;;;34.60;18.20;;;;;;;11.58;100.00;98087.21;68423;1280;1015848;-72
2023/11/17 02:51:03;;;;;;;35.90;17.50;;;;;;;11.52;100.00;98082.98;68408;1280;1016399;-71
2023/11/17 02:54:08;;;;;;;37.50;18.00;;;;;;;11.53;100.00;98078.34;68438;1280;1016106;-72
2023/11/17 02:57:10;;;;;;;43.30;19.70;;;;;;;11.22;100.00;98073.61;68430;1280;1015924;-73
2023/11/17 03:00:14;;;;;;;40.30;19.50;;;;;;;11.07;100.00;98078.95;68446;1280;1016100;-72
2023/11/17 03:03:17;;;;;;;47.00;21.90;;;;;;;11.09;100.00;98076.17;68451;1280;1015444;-72
2023/11/17 03:06:19;;;;;;;53.00;23.30;;;;;;;11.22;100.00;98068.25;68416;1280;1016216;-72
2023/11/17 03:09:22;;;;;;;41.10;19.80;;;;;;;11.17;100.00;98067.90;68429;1279;1015757;-72
2023/11/17 03:12:27;;;;;;;57.90;26.20;;;;;;;11.09;100.00;98070.58;68411;1280;1015508;-73
2023/11/17 03:15:29;;;;;;;51.40;22.80;;;;;;;11.05;100.00;98062.66;68434;1280;1015389;-72
2023/11/17 03:18:38;;;;;;;45.60;22.40;;;;;;;10.87;100.00;98065.77;68420;1280;1015638;-72
2023/11/17 03:21:41;;;;;;;37.30;17.70;;;;;;;11.04;100.00;98062.61;68433;1280;1016115;-72
2023/11/17 03:24:43;;;;;;;35.40;17.40;;;;;;;11.16;100.00;98057.15;68422;1280;1016051;-72
2023/11/17 03:27:47;;;;;;;32.90;16.50;;;;;;;11.11;100.00;98060.52;68433;1280;1015646;-72
2023/11/17 03:30:52;;;;;;;33.80;16.90;;;;;;;11.09;100.00;98061.48;68431;1280;1016251;-72
2023/11/17 03:33:57;;;;;;;34.40;16.30;;;;;;;11.19;100.00;98059.89;68416;1280;1015421;-72
2023/11/17 03:37:01;;;;;;;33.00;15.50;;;;;;;11.18;100.00;98057.52;68417;1280;1015612;-72
2023/11/17 03:40:08;;;;;;;32.00;15.50;;;;;;;11.11;100.00;98051.73;68441;1279;1015892;-72
2023/11/17 03:43:13;;;;;;;45.30;21.00;;;;;;;11.13;100.00;98048.41;68424;1280;1015561;-72
2023/11/17 03:46:15;;;;;;;32.90;14.90;;;;;;;11.03;100.00;98049.49;68417;1280;1015658;-72
2023/11/17 03:49:19;;;;;;;31.80;14.90;;;;;;;10.89;100.00;98054.94;68432;1280;1015950;-72
2023/11/17 03:52:23;;;;;;;29.60;13.40;;;;;;;10.78;100.00;98055.22;68438;1280;1015867;-72
2023/11/17 03:55:27;;;;;;;33.40;15.60;;;;;;;10.53;100.00;98049.52;68417;1280;1015623;-72
2023/11/17 03:58:29;;;;;;;33.20;15.30;;;;;;;10.45;100.00;98046.96;68427;1280;1015708;-72
2023/11/17 04:01:33;;;;;;;31.60;14.90;;;;;;;10.39;100.00;98048.28;68414;1280;1015523;-72
2023/11/17 04:04:36;;;;;;;31.00;13.80;;;;;;;10.50;100.00;98047.48;68425;1280;1015011;-72
2023/11/17 04:07:39;;;;;;;30.90;12.60;;;;;;;10.57;100.00;98054.52;68432;1280;1016108;-72
2023/11/17 04:10:42;;;;;;;30.10;11.90;;;;;;;10.60;100.00;98051.16;68402;1280;1015968;-72
2023/11/17 04:13:44;;;;;;;26.40;10.90;;;;;;;10.61;100.00;98048.45;68417;1280;1016045;-72
2023/11/17 04:16:49;;;;;;;26.20;11.50;;;;;;;10.56;100.00;98043.86;68431;1280;1016092;-71
2023/11/17 04:19:51;;;;;;;26.30;11.30;;;;;;;10.53;100.00;98045.64;68424;1280;1016198;-72
2023/11/17 04:22:54;;;;;;;26.40;10.70;;;;;;;10.46;100.00;98046.54;68413;1280;1016031;-72
2023/11/17 04:25:57;;;;;;;28.60;12.00;;;;;;;10.56;100.00;98042.48;68411;1280;1015449;-72
2023/11/17 04:29:00;;;;;;;;;;;;;;;10.41;100.00;98044.65;68442;1280;1015547;-72
2023/11/17 04:32:03;;;;;;;28.20;11.40;;;;;;;10.70;100.00;98040.59;68429;1280;1015819;-73
2023/11/17 04:35:06;;;;;;;25.80;11.60;;;;;;;10.73;100.00;98043.52;68442;1280;1016098;-72
2023/11/17 04:38:09;;;;;;;27.40;11.40;;;;;;;10.88;100.00;98041.18;68445;1280;1015709;-72
2023/11/17 04:41:11;;;;;;;26.80;11.60;;;;;;;10.90;100.00;98038.58;68414;1280;1015206;-73
2023/11/17 04:44:14;;;;;;;24.90;11.10;;;;;;;10.98;100.00;98035.41;68434;1280;1015271;-72
2023/11/17 04:47:16;;;;;;;30.50;11.70;;;;;;;10.97;100.00;98033.85;68429;1280;1015023;-72
2023/11/17 04:50:20;;;;;;;28.20;11.40;;;;;;;10.91;100.00;98033.13;68419;1280;1015689;-72
2023/11/17 04:53:22;;;;;;;27.90;11.60;;;;;;;10.98;100.00;98033.11;68425;1280;1015268;-73
2023/11/17 04:56:27;;;;;;;25.50;10.80;;;;;;;10.94;100.00;98027.96;68423;1280;1015841;-73
2023/11/17 04:59:29;;;;;;;27.80;11.00;;;;;;;10.93;100.00;98028.02;68420;1280;1016019;-72
2023/11/17 05:02:33;;;;;;;25.60;10.50;;;;;;;10.82;100.00;98036.03;68410;1280;1015141;-69
2023/11/17 05:05:35;;;;;;;26.90;11.20;;;;;;;10.83;100.00;98037.02;68444;1280;1015518;-72
2023/11/17 05:08:38;;;;;;;26.60;10.50;;;;;;;10.80;100.00;98034.97;68431;1279;1015619;-72
2023/11/17 05:11:41;;;;;;;27.20;10.90;;;;;;;10.84;100.00;98038.53;68416;1280;1015938;-72
2023/11/17 05:14:44;;;;;;;26.40;11.10;;;;;;;10.83;100.00;98032.08;68412;1280;1015404;-73
2023/11/17 05:17:48;;;;;;;;;;;;;;;10.66;100.00;98031.80;68430;1279;1015760;-73
2023/11/17 05:20:50;;;;;;;29.30;11.10;;;;;;;10.77;100.00;98027.14;68408;1280;1015523;-72
2023/11/17 05:23:53;;;;;;;26.30;10.50;;;;;;;10.72;100.00;98030.67;68433;1280;1016060;-72
2023/11/17 05:26:56;;;;;;;27.50;10.30;;;;;;;10.85;100.00;98022.70;68410;1280;1015279;-72
2023/11/17 05:29:58;;;;;;;28.00;10.70;;;;;;;10.94;100.00;98025.58;68441;1280;1015410;-72
2023/11/17 05:33:01;;;;;;;;;;;;;;;10.98;100.00;98030.96;68453;1280;1015917;-72
2023/11/17 05:36:04;;;;;;;29.00;10.40;;;;;;;11.14;100.00;98036.60;68448;1280;1015580;-72
2023/11/17 05:39:08;;;;;;;28.00;10.60;;;;;;;11.37;100.00;98037.13;68414;1279;1015787;-72
2023/11/17 05:42:12;;;;;;;27.20;10.00;;;;;;;11.38;100.00;98039.15;68364;1280;1016164;-72
2023/11/17 05:45:15;;;;;;;28.60;10.10;;;;;;;11.38;100.00;98041.99;68423;1280;1015673;-72
2023/11/17 05:48:17;;;;;;;;;;;;;;;11.25;100.00;98048.06;68441;1280;1014347;-73
2023/11/17 05:51:20;;;;;;;27.80;10.50;;;;;;;11.10;100.00;98050.92;68429;1280;1015462;-68
2023/11/17 05:54:22;;;;;;;27.00;10.40;;;;;;;11.09;100.00;98053.97;68408;1280;1015336;-71
2023/11/17 05:57:25;;;;;;;;;;;;;;;10.90;100.00;98055.56;68420;1280;1015407;-72
2023/11/17 06:00:28;;;;;;;27.20;10.90;;;;;;;10.77;100.00;98056.67;68415;1280;1015389;-72
2023/11/17 06:03:31;;;;;;;28.70;10.50;;;;;;;10.69;100.00;98056.94;68422;1280;1015494;-72
2023/11/17 06:06:33;;;;;;;27.40;10.60;;;;;;;10.68;100.00;98059.11;68419;1280;1015685;-72
2023/11/17 06:09:36;;;;;;;28.30;10.50;;;;;;;10.75;100.00;98061.03;68438;1280;1015782;-72
2023/11/17 06:12:38;;;;;;;28.30;11.40;;;;;;;10.80;100.00;98063.85;68420;1280;1015451;-72
2023/11/17 06:15:41;;;;;;;28.50;11.20;;;;;;;10.89;100.00;98068.91;68443;1280;1016294;-72
2023/11/17 06:18:43;;;;;;;32.40;11.60;;;;;;;10.94;100.00;98073.09;68423;1280;1015370;-72
2023/11/17 06:21:47;;;;;;;28.80;10.80;;;;;;;10.92;100.00;98073.44;68424;1280;1015058;-71
2023/11/17 06:24:49;;;;;;;27.90;10.40;;;;;;;10.93;100.00;98071.77;68425;1280;1015821;-72
2023/11/17 06:27:53;;;;;;;26.90;10.60;;;;;;;10.87;100.00;98069.45;68435;1280;1016070;-72
2023/11/17 06:30:55;;;;;;;27.70;10.20;;;;;;;10.90;100.00;98075.48;68430;1280;1015327;-73
2023/11/17 06:33:58;;;;;;;26.70;10.30;;;;;;;10.82;100.00;98082.38;68436;1280;1015501;-71
2023/11/17 06:37:00;;;;;;;;;;;;;;;10.80;100.00;98080.64;68420;1280;1016168;-71
2023/11/17 06:40:06;;;;;;;29.00;12.20;;;;;;;10.54;100.00;98085.46;68412;1280;1015528;-73
2023/11/17 06:43:10;;;;;;;29.50;11.70;;;;;;;10.36;100.00;98087.07;68413;1280;1015447;-72
2023/11/17 06:46:13;;;;;;;28.30;11.30;;;;;;;10.47;100.00;98091.36;68425;1280;1015717;-72
2023/11/17 06:49:16;;;;;;;26.20;10.10;;;;;;;10.55;100.00;98090.86;68429;1280;1016487;-71
2023/11/17 06:52:19;;;;;;;27.50;11.20;;;;;;;10.44;100.00;98094.95;68434;1280;1015853;-73
2023/11/17 06:55:21;;;;;;;25.80;10.20;;;;;;;10.28;100.00;98090.83;68407;1280;1015757;-73
2023/11/17 06:58:24;;;;;;;27.40;11.10;;;;;;;10.20;100.00;98095.59;68409;1280;1015633;-72
2023/11/17 07:01:26;;;;;;;24.80;10.30;;;;;;;10.17;100.00;98098.02;68427;1280;1016511;-73
2023/11/17 07:04:30;;;;;;;26.90;9.90;;;;;;;10.02;100.00;98097.88;68426;1280;1015271;-72
2023/11/17 07:07:33;;;;;;;25.50;10.20;;;;;;;10.18;100.00;98103.23;68419;1280;1016145;-72
2023/11/17 07:10:36;;;;;;;26.10;9.70;;;;;;;10.17;100.00;98106.24;68429;1280;1016048;-72
2023/11/17 07:13:40;;;;;;;26.60;9.70;;;;;;;10.16;100.00;98107.55;68438;1280;1016089;-73
2023/11/17 07:16:44;;;;;;;24.20;9.80;;;;;;;10.18;100.00;98115.92;68435;1280;1015505;-73
2023/11/17 07:19:46;;;;;;;24.70;9.80;;;;;;;10.28;100.00;98116.99;68415;1280;1015135;-72
2023/11/17 07:22:49;;;;;;;24.50;9.40;;;;;;;10.16;100.00;98123.60;68422;1280;1015242;-72
2023/11/17 07:25:52;;;;;;;;;;;;;;;10.37;100.00;98123.73;68435;1280;1015996;-73
2023/11/17 07:28:54;;;;;;;23.90;9.00;;;;;;;10.32;100.00;98125.65;68412;1280;1015247;-73
2023/11/17 07:31:57;;;;;;;22.90;8.80;;;;;;;10.34;100.00;98129.54;68412;1280;1015239;-72
2023/11/17 07:35:00;;;;;;;24.00;8.90;;;;;;;10.32;100.00;98133.51;68423;1280;1015444;-72
2023/11/17 07:38:03;;;;;;;25.50;9.40;;;;;;;10.27;100.00;98134.75;68432;1280;1015865;-73
2023/11/17 07:41:05;;;;;;;24.90;9.40;;;;;;;10.33;100.00;98136.36;68429;1280;1015340;-72
2023/11/17 07:44:09;;;;;;;23.50;9.40;;;;;;;10.31;100.00;98140.24;65987;1280;5379658;-72
2023/11/17 07:47:23;;;;;;;25.30;9.20;;;;;;;10.25;100.00;98135.21;68405;1280;1016323;-72
2023/11/17 07:50:26;;;;;;;24.70;9.60;;;;;;;10.29;100.00;98137.23;68426;1280;1015406;-72
2023/11/17 07:53:29;;;;;;;24.30;9.30;;;;;;;10.38;100.00;98136.63;68410;1280;1015361;-72
2023/11/17 07:56:31;;;;;;;;;;;;;;;10.42;100.00;98139.10;68428;1280;1015644;-72
2023/11/17 07:59:34;;;;;;;24.50;9.30;;;;;;;10.42;100.00;98143.09;68428;1280;1015907;-72
2023/11/17 08:02:36;;;;;;;26.80;9.70;;;;;;;10.28;100.00;98145.16;68424;1280;1016162;-73
2023/11/17 08:05:40;;;;;;;25.00;9.50;;;;;;;10.41;100.00;98144.58;68411;1280;1015877;-73
2023/11/17 08:08:43;;;;;;;26.50;10.60;;;;;;;10.40;100.00;98151.15;68402;1280;1015885;-72
2023/11/17 08:11:47;;;;;;;25.60;9.30;;;;;;;10.42;100.00;98150.63;68414;1280;1015037;-73
2023/11/17 08:14:53;;;;;;;25.00;8.90;;;;;;;10.55;100.00;98154.83;68402;1280;1016433;-73
2023/11/17 08:17:56;;;;;;;24.80;9.10;;;;;;;10.51;100.00;98162.78;68417;1280;1015332;-72
2023/11/17 08:20:58;;;;;;;25.90;9.90;;;;;;;10.46;100.00;98162.60;68400;1280;1015643;-71
2023/11/17 08:24:01;;;;;;;24.00;8.80;;;;;;;10.52;100.00;98164.14;68415;1280;1015246;-72
2023/11/17 08:27:03;;;;;;;23.60;8.80;;;;;;;10.70;100.00;98169.27;68426;1280;1015338;-72
2023/11/17 08:30:07;;;;;;;24.20;8.50;;;;;;;10.79;100.00;98174.91;68413;1280;1015732;-72
2023/11/17 08:33:09;;;;;;;21.90;8.10;;;;;;;10.71;100.00;98175.31;68416;1280;1015935;-72
2023/11/17 08:36:12;;;;;;;21.20;7.50;;;;;;;10.68;100.00;98178.31;68406;1280;1016154;-72
2023/11/17 08:39:25;;;;;;;22.70;8.50;;;;;;;10.68;100.00;98178.70;68413;1280;1015575;-72
2023/11/17 08:42:29;;;;;;;22.80;7.90;;;;;;;10.89;100.00;98179.86;68439;1280;1016398;-72
2023/11/17 08:45:32;;;;;;;21.40;8.00;;;;;;;10.90;100.00;98173.27;68415;1280;1015772;-72
2023/11/17 08:48:35;;;;;;;21.60;8.00;;;;;;;10.97;100.00;98175.38;68429;1280;1015759;-71
2023/11/17 08:51:37;;;;;;;19.60;7.10;;;;;;;11.05;100.00;98175.98;68419;1280;1016728;-72
2023/11/17 08:54:40;;;;;;;22.20;7.40;;;;;;;11.09;100.00;98182.06;68409;1280;1015518;-72
2023/11/17 08:57:44;;;;;;;20.70;7.60;;;;;;;11.16;100.00;98185.71;68423;1280;1015871;-71
2023/11/17 09:00:49;;;;;;;20.70;7.80;;;;;;;11.24;100.00;98186.90;68435;1280;1015830;-72
2023/11/17 09:03:52;;;;;;;21.00;7.30;;;;;;;11.26;100.00;98186.92;68417;1280;1015988;-72
2023/11/17 09:06:54;;;;;;;21.90;7.50;;;;;;;11.26;100.00;98189.38;68415;1280;1015741;-71
2023/11/17 09:09:57;;;;;;;22.10;7.10;;;;;;;11.25;100.00;98187.64;68416;1280;1015268;-72
2023/11/17 09:12:59;;;;;;;22.20;6.90;;;;;;;11.12;100.00;98195.17;68406;1280;1015918;-72
2023/11/17 09:16:07;;;;;;;18.70;6.30;;;;;;;11.18;100.00;98191.39;68408;1280;1015602;-72
2023/11/17 09:19:09;;;;;;;19.90;7.10;;;;;;;11.04;100.00;98195.30;68402;1280;1016151;-69
2023/11/17 09:22:12;;;;;;;18.70;6.20;;;;;;;11.14;100.00;98200.43;68413;1280;1016141;-72
2023/11/17 09:25:14;;;;;;;18.20;5.70;;;;;;;11.20;100.00;98209.22;68407;1280;1015427;-72
2023/11/17 09:28:17;;;;;;;16.50;5.70;;;;;;;11.17;100.00;98207.33;68424;1280;1015357;-72
2023/11/17 09:31:19;;;;;;;18.20;5.70;;;;;;;11.29;100.00;98209.67;68422;1280;1015578;-72
2023/11/17 09:34:22;;;;;;;18.70;6.20;;;;;;;11.35;100.00;98211.46;68417;1280;1016073;-72
2023/11/17 09:37:25;;;;;;;17.90;5.70;;;;;;;11.32;100.00;98209.90;68426;1280;1015411;-71
2023/11/17 09:40:28;;;;;;;18.60;5.90;;;;;;;11.18;100.00;98210.80;68404;1280;1015790;-72
2023/11/17 09:43:31;;;;;;;17.40;5.30;;;;;;;11.03;100.00;98209.76;68392;1280;1015464;-72
2023/11/17 09:46:35;;;;;;;19.20;5.70;;;;;;;11.25;100.00;98209.96;68409;1280;1015509;-72
2023/11/17 09:49:38;;;;;;;16.00;5.20;;;;;;;11.18;100.00;98209.89;68411;1280;1015961;-73
2023/11/17 09:52:44;;;;;;;17.40;5.30;;;;;;;11.17;100.00;98211.38;68394;1280;1014371;-71
2023/11/17 09:55:48;;;;;;;17.60;5.70;;;;;;;11.18;100.00;98212.36;68408;1280;1015769;-72
2023/11/17 09:58:51;;;;;;;15.50;5.10;;;;;;;11.29;100.00;98209.68;68398;1280;1015664;-72
2023/11/17 10:01:53;;;;;;;17.00;4.90;;;;;;;11.34;100.00;98210.62;68407;1280;1016209;-72
2023/11/17 10:04:56;;;;;;;16.80;5.00;;;;;;;11.44;100.00;98208.52;68413;1257;1015939;-72
2023/11/17 10:07:59;;;;;;;15.30;4.70;;;;;;;11.48;100.00;98207.39;68414;1280;1015863;-72
2023/11/17 10:11:02;;;;;;;16.40;4.30;;;;;;;11.47;100.00;98207.44;68407;1280;1016132;-72
2023/11/17 10:14:06;;;;;;;13.80;4.20;;;;;;;11.42;100.00;98208.02;68427;1280;1016218;-72
2023/11/17 10:17:09;;;;;;;15.30;4.40;;;;;;;11.47;100.00;98206.86;68411;1280;1015920;-72
2023/11/17 10:20:17;;;;;;;15.60;4.40;;;;;;;11.41;100.00;98207.70;68415;1280;1014965;-71
2023/11/17 10:23:20;;;;;;;15.00;4.10;;;;;;;11.35;100.00;98216.34;68410;1279;1016146;-72
2023/11/17 10:26:23;;;;;;;13.30;3.90;;;;;;;11.31;100.00;98224.70;68410;1280;1014619;-72
2023/11/17 10:29:29;;;;;;;13.70;4.30;;;;;;;11.25;100.00;98220.09;68406;1280;1015991;-72
2023/11/17 10:32:32;;;;;;;12.70;4.10;;;;;;;11.25;100.00;98221.46;68415;1280;1015484;-72
2023/11/17 10:35:37;;;;;;;13.40;4.10;;;;;;;11.20;100.00;98224.33;68393;1280;1015902;-72
2023/11/17 10:38:39;;;;;;;13.70;4.00;;;;;;;11.25;100.00;98221.62;68399;1280;1015481;-72
2023/11/17 10:41:42;;;;;;;14.40;4.20;;;;;;;11.12;100.00;98220.16;68417;1280;1015351;-73
2023/11/17 10:44:46;;;;;;;11.90;3.90;;;;;;;10.99;100.00;98223.05;68394;1280;1016035;-72
2023/11/17 10:47:48;;;;;;;17.70;5.10;;;;;;;10.90;100.00;98228.68;68408;1280;1016034;-72
2023/11/17 10:50:53;;;;;;;16.90;5.30;;;;;;;10.92;100.00;98228.38;68386;1280;1015960;-72
2023/11/17 10:53:55;;;;;;;19.10;5.80;;;;;;;10.88;100.00;98231.12;68403;1280;1015543;-72
2023/11/17 10:56:59;;;;;;;20.00;6.60;;;;;;;10.92;100.00;98232.64;68394;1280;1016388;-72
2023/11/17 11:00:02;;;;;;;19.40;6.10;;;;;;;10.83;100.00;98233.11;68398;1280;1015954;-72
2023/11/17 11:03:13;;;;;;;19.10;5.70;;;;;;;10.62;100.00;98241.39;68397;1280;1015239;-72
2023/11/17 11:06:16;;;;;;;19.50;5.60;;;;;;;10.45;100.00;98241.65;68404;1280;1016215;-71
2023/11/17 11:09:18;;;;;;;21.50;5.90;;;;;;;10.40;100.00;98238.54;68381;1280;1015226;-72
2023/11/17 11:12:21;;;;;;;17.80;5.60;;;;;;;10.38;100.00;98247.73;68414;1280;1015912;-72
2023/11/17 11:15:24;;;;;;;18.40;6.60;;;;;;;10.41;100.00;98242.11;68393;1280;1016658;-72
2023/11/17 11:18:26;;;;;;;17.00;5.40;;;;;;;10.53;100.00;98243.20;68401;1280;1015606;-72
2023/11/17 11:21:29;;;;;;;19.20;5.60;;;;;;;10.61;100.00;98244.73;68390;1280;1015554;-70
2023/11/17 11:24:33;;;;;;;19.40;5.60;;;;;;;10.55;100.00;98249.39;68395;1280;1015607;-72
2023/11/17 11:27:36;;;;;;;18.10;5.40;;;;;;;10.53;100.00;98254.05;68382;1280;1015774;-72
2023/11/17 11:30:39;;;;;;;18.50;5.80;;;;;;;10.47;100.00;98252.40;68393;1280;1015853;-71
2023/11/17 11:33:41;;;;;;;19.80;5.90;;;;;;;10.45;100.00;98256.16;68393;1280;1015589;-72
2023/11/17 11:36:45;;;;;;;18.10;5.70;;;;;;;10.47;100.00;98253.98;68386;1280;1015269;-71
2023/11/17 11:39:48;;;;;;;18.90;5.70;;;;;;;10.40;100.00;98260.38;68414;1280;1015834;-72
2023/11/17 11:42:50;;;;;;;18.40;5.70;;;;;;;10.50;100.00;98260.07;68410;1280;1015326;-72
2023/11/17 11:46:15;;;;;;;;;;;;;;;10.51;100.00;98254.89;68387;1280;1015756;-71
2023/11/17 11:49:19;;;;;;;16.60;5.40;;;;;;;10.62;100.00;98251.67;68411;1280;1015653;-72
2023/11/17 11:52:22;;;;;;;17.50;5.20;;;;;;;10.81;100.00;98248.45;68394;1280;1015501;-71
2023/11/17 11:55:25;;;;;;;;;;;;;;;10.80;100.00;98254.77;68422;1280;1015422;-72
2023/11/17 11:58:27;;;;;;;19.50;5.80;;;;;;;10.87;100.00;98254.48;68385;1280;1015886;-71
2023/11/17 12:01:32;;;;;;;17.00;4.90;;;;;;;10.85;100.00;98254.40;68379;1280;1015407;-72
2023/11/17 12:04:35;;;;;;;19.00;5.90;;;;;;;10.63;100.00;98260.91;68391;1280;1016270;-71
2023/11/17 12:07:40;;;;;;;18.10;5.40;;;;;;;10.42;100.00;98265.30;68386;1280;1016166;-70
2023/11/17 12:10:42;;;;;;;22.00;7.40;;;;;;;10.40;100.00;98272.62;68399;1280;1015241;-72
2023/11/17 12:13:45;;;;;;;;;;;;;;;10.33;100.00;98284.92;68410;1280;1015998;-72
2023/11/17 12:16:48;;;;;;;23.90;8.60;;;;;;;10.20;100.00;98283.38;68392;1280;1015393;-72
2023/11/17 12:19:51;;;;;;;22.70;8.20;;;;;;;9.99;100.00;98283.20;68402;1280;1015801;-71
2023/11/17 12:22:53;;;;;;;23.70;8.00;;;;;;;9.92;100.00;98285.91;68376;1280;1015927;-72
2023/11/17 12:25:56;;;;;;;;;;;;;;;9.96;100.00;98287.09;68394;1280;1016015;-72
2023/11/17 12:29:00;;;;;;;26.80;9.50;;;;;;;9.94;100.00;98292.99;68398;1280;1015390;-72
2023/11/17 12:32:03;;;;;;;24.50;9.20;;;;;;;9.94;100.00;98295.20;68377;1280;1015432;-71
2023/11/17 12:35:06;;;;;;;23.10;8.30;;;;;;;9.95;100.00;98299.02;68404;1280;1015665;-72
2023/11/17 12:38:09;;;;;;;23.90;8.90;;;;;;;9.95;100.00;98298.52;68384;1280;1015245;-72
2023/11/17 12:41:11;;;;;;;22.40;8.00;;;;;;;9.91;100.00;98306.61;68398;1280;1015642;-73
2023/11/17 12:44:14;;;;;;;22.70;8.30;;;;;;;9.80;100.00;98313.65;68398;1280;1015853;-72
2023/11/17 12:47:17;;;;;;;24.10;8.10;;;;;;;9.75;100.00;98315.17;68388;1280;1016224;-72
2023/11/17 12:50:20;;;;;;;24.50;9.20;;;;;;;9.67;100.00;98313.79;68380;1280;1015216;-72
2023/11/17 12:53:23;;;;;;;26.30;8.70;;;;;;;9.70;100.00;98312.86;68389;1280;1015285;-71
2023/11/17 12:56:26;;;;;;;25.30;9.00;;;;;;;9.69;100.00;98316.95;68400;1280;1015805;-72
2023/11/17 12:59:29;;;;;;;25.70;9.40;;;;;;;9.71;100.00;98325.93;68396;1280;1015189;-72
2023/11/17 13:02:31;;;;;;;25.50;9.50;;;;;;;9.70;100.00;98326.34;68397;1280;1015306;-71
2023/11/17 13:05:34;;;;;;;24.70;9.40;;;;;;;9.64;100.00;98333.73;68402;1279;1015494;-72
2023/11/17 13:08:36;;;;;;;26.60;8.70;;;;;;;9.59;100.00;98336.81;68380;1279;1015160;-72
2023/11/17 13:11:39;;;;;;;26.20;9.60;;;;;;;9.66;100.00;98343.85;68384;1279;1015476;-71
2023/11/17 13:14:41;;;;;;;23.50;8.40;;;;;;;9.69;100.00;98351.20;68375;1280;1015465;-70
2023/11/17 13:41:18;;;;;;;20.40;7.40;;;;;;;7.84;100.00;98369.41;131116;1317;557825;-72
2023/11/17 13:44:23;;;;;;;;;;;;;;;8.17;100.00;98372.30;130640;1290;5324180;-73
2023/11/17 13:47:26;;;;;;;22.00;7.30;;;;;;;8.14;100.00;98379.80;135020;1284;22697;-72
2023/11/17 13:50:29;;;;;;;25.30;9.30;;;;;;;8.02;100.00;98378.08;135175;1282;22551;-75
2023/11/17 13:53:32;;;;;;;25.60;9.50;;;;;;;7.84;100.00;98373.50;135183;1282;22569;-72
2023/11/17 13:56:35;;;;;;;25.60;9.50;;;;;;;7.64;100.00;98370.29;135144;1282;22565;-72
2023/11/17 13:59:38;;;;;;;27.30;9.50;;;;;;;7.48;100.00;98367.36;135125;1282;22681;-72
2023/11/17 14:02:41;;;;;;;28.60;9.70;;;;;;;7.45;100.00;98369.75;135140;1282;22589;-72
2023/11/17 14:05:45;;;;;;;24.00;8.60;;;;;;;7.52;100.00;98376.88;135101;1282;24261;-72
2023/11/17 14:08:49;;;;;;;25.60;9.30;;;;;;;7.45;100.00;98384.71;135143;1282;22593;-67